Airfield :
LOGIN :

Register | Disclaimer

   EN    FR    IT 

 










Legend :    VFR   Marginal VFR   IFR   Intensive IFR   Very Intensive IFR
Visi :
Ceiling :
>= 8 km
>= 3000ft
5 to 8 km
1000 to 3000 ft
1500m to 5 km
500 to 1000 ft
800 to 1500m
200 to 500 ft
< 800m
< 200 ft
Symbols :   Thunderstorms  Fog  Heavy snow  Heavy precipitations  Wind > 20 kt
SIGMETs :     Misc.  Thunderstorms  Icing  Turbulence  Mountain Waves  Volcanic Ashes






- Airport Elevation : 3463 ft
- IATA code : ASR


LTAU - Erkilet AB

CURRENT METAR :
  • 151120Z 07004KT 360V110 9999 SCT040 32/09 Q1014 NOSIG RMK RWY07 05007KT 350V130

EXPIRED METARs :
  • 151050Z 06004KT 010V110 9999 SCT040 31/10 Q1014 NOSIG
  • 151020Z 05005KT 340V090 9999 SCT040 31/09 Q1014 NOSIG RMK RWY07 VRB04KT
  • 150950Z 03006KT 340V070 9999 SCT040 31/09 Q1014 NOSIG RMK RWY07 01006KT 320V050
  • 150920Z 03005KT 350V070 9999 SCT040 31/09 Q1014 NOSIG RMK RWY07 01005KT 300V080
  • 150850Z 05006KT 010V080 9999 SCT040 29/10 Q1015 NOSIG RMK RWY07 VRB04KT

TAF TAF LTAU
Valid from the 15 at 12:00 until the 16 at 12:00 UTC


151040Z 1512/1612 VRB02KT 9999 SCT040
PROB30
TEMPO 1515/1519 25015G25KT -TSRA FEW030CB BKN035
BECMG 1519/1522 06012KT CAVOK
BECMG 1606/1609 VRB02KT SCT040



MET'MAP, your aeronautical weather chart ! - Copyright ORBIFLY December 2007 - Disclaimer

ORBIFLY MET'MAP TEAM :

Programming & Development : Alexandra Zaïnal
Concept & original design : Baudouin d'Aumeries
Assistance for programming : Marc-Olivier Méhu
Technical & hardware support : Manuel Goepfert

Contact : metmap@orbifly.com




SOURCES & CREDITS :

   NOAA